createdAt,value
2023-03-06T06:03:35.688Z,20.33
2023-03-06T06:04:36.617Z,20.32
2023-03-06T06:05:35.647Z,20.35
2023-03-06T06:06:36.686Z,20.35
2023-03-06T06:07:35.723Z,20.33
2023-03-06T06:08:36.748Z,20.33
2023-03-06T06:09:36.775Z,20.35
2023-03-06T06:10:36.777Z,20.36
2023-03-06T06:11:36.805Z,20.35
2023-03-06T06:12:36.812Z,20.35
2023-03-06T06:13:36.799Z,20.36
2023-03-06T06:14:36.790Z,20.36
2023-03-06T06:15:36.846Z,20.36
2023-03-06T06:16:36.774Z,20.38
2023-03-06T06:17:36.760Z,20.35
2023-03-06T06:18:38.685Z,20.36
2023-03-06T06:19:36.789Z,20.38
2023-03-06T06:20:36.762Z,20.38
2023-03-06T06:21:36.753Z,20.38
2023-03-06T06:22:36.744Z,20.40
2023-03-06T06:23:36.731Z,20.40
2023-03-06T06:24:36.720Z,20.39
2023-03-06T06:25:36.717Z,20.38
2023-03-06T06:26:36.701Z,20.35
2023-03-06T06:27:36.689Z,20.22
2023-03-06T06:28:36.730Z,20.35
2023-03-06T06:29:36.683Z,20.38
2023-03-06T06:30:36.678Z,20.36
2023-03-06T06:31:36.665Z,20.33
2023-03-06T06:32:35.732Z,20.38
2023-03-06T06:33:36.650Z,20.40
2023-03-06T06:34:36.648Z,20.42
2023-03-06T06:35:36.756Z,20.43
2023-03-06T06:36:35.643Z,20.39
2023-03-06T06:37:36.674Z,20.46
2023-03-06T06:38:36.620Z,20.46
2023-03-06T06:39:35.626Z,20.40
2023-03-06T06:40:36.602Z,20.50
2023-03-06T06:41:54.858Z,20.49
2023-03-06T06:42:39.818Z,20.35
2023-03-06T06:43:36.596Z,20.33
2023-03-06T06:44:36.612Z,20.38
2023-03-06T06:45:35.564Z,20.56
2023-03-06T06:47:36.556Z,20.52
2023-03-06T06:48:36.554Z,20.62
2023-03-06T06:49:36.577Z,20.63
2023-03-06T06:50:36.554Z,20.70
2023-03-06T06:51:36.568Z,20.72
2023-03-06T06:52:36.538Z,20.74
2023-03-06T06:53:36.517Z,20.69
2023-03-06T06:54:36.509Z,20.73
2023-03-06T06:55:36.498Z,20.76
2023-03-06T06:56:36.498Z,20.77
2023-03-06T06:57:36.500Z,20.84
2023-03-06T06:58:36.502Z,20.91
2023-03-06T06:59:36.471Z,20.87
2023-03-06T07:00:36.466Z,20.98
2023-03-06T07:01:36.539Z,20.93
2023-03-06T07:02:36.496Z,20.97
2023-03-06T07:03:36.486Z,21.01
2023-03-06T07:04:36.472Z,21.10
2023-03-06T07:05:36.443Z,21.04
2023-03-06T07:06:35.430Z,20.83
2023-03-06T07:07:36.566Z,20.67
2023-03-06T07:08:35.406Z,20.49
2023-03-06T07:09:36.388Z,20.22
2023-03-06T07:10:36.398Z,20.12
2023-03-06T07:11:36.404Z,20.07
2023-03-06T07:12:36.398Z,19.94
2023-03-06T07:13:36.377Z,19.83
2023-03-06T07:14:36.363Z,19.76
2023-03-06T07:15:36.410Z,19.77
2023-03-06T07:16:36.336Z,19.70
2023-03-06T07:17:36.356Z,19.78
2023-03-06T07:18:35.332Z,19.67
2023-03-06T07:19:37.970Z,19.67
2023-03-06T07:20:35.311Z,19.67
2023-03-06T07:21:36.330Z,19.69
2023-03-06T07:22:49.836Z,19.65
2023-03-06T07:23:36.310Z,19.63
2023-03-06T07:24:36.296Z,19.59
2023-03-06T07:25:36.275Z,19.66
2023-03-06T07:26:36.304Z,19.80
2023-03-06T07:27:36.328Z,19.87
2023-03-06T07:28:51.305Z,20.01
2023-03-06T07:29:36.244Z,20.07
2023-03-06T07:30:36.256Z,20.21
2023-03-06T07:31:35.289Z,20.36
2023-03-06T07:32:36.273Z,20.48
2023-03-06T07:33:36.238Z,20.57
2023-03-06T07:34:36.255Z,20.55
2023-03-06T07:35:36.252Z,20.72
2023-03-06T07:36:36.202Z,20.86
2023-03-06T07:37:36.213Z,20.90
2023-03-06T07:38:36.186Z,20.89
2023-03-06T07:39:36.222Z,21.05
2023-03-06T07:40:36.182Z,21.10
2023-03-06T07:41:35.185Z,21.08
2023-03-06T07:42:35.162Z,21.20
2023-03-06T07:43:36.166Z,21.18
2023-03-06T07:44:36.198Z,21.12
2023-03-06T07:45:35.141Z,21.27
2023-03-06T07:46:36.196Z,21.27
2023-03-06T07:47:36.149Z,21.28
2023-03-06T07:48:36.138Z,21.31
2023-03-06T07:49:36.125Z,21.34
2023-03-06T07:50:35.128Z,21.39
2023-03-06T07:51:35.125Z,21.41
2023-03-06T07:52:35.116Z,21.34
2023-03-06T07:53:36.521Z,21.44
2023-03-06T07:54:36.091Z,21.46
2023-03-06T07:55:37.033Z,21.49
2023-03-06T07:56:36.068Z,21.45
2023-03-06T07:57:36.079Z,21.45
2023-03-06T07:58:36.571Z,21.48
2023-03-06T07:59:36.056Z,21.55
2023-03-06T08:00:36.031Z,21.55
2023-03-06T08:01:36.047Z,21.55
2023-03-06T08:02:37.041Z,21.60
2023-03-06T08:03:36.066Z,21.55
2023-03-06T08:04:36.015Z,21.55
2023-03-06T08:05:36.003Z,21.67
2023-03-06T08:06:36.005Z,21.59
2023-03-06T08:07:35.974Z,21.60
2023-03-06T08:08:35.985Z,21.67
2023-03-06T08:09:35.979Z,21.70
2023-03-06T08:10:35.972Z,21.67
2023-03-06T08:11:36.086Z,21.70
2023-03-06T08:12:35.952Z,21.67
2023-03-06T08:13:35.990Z,21.73
2023-03-06T08:14:35.935Z,21.73
2023-03-06T08:15:35.923Z,21.72
2023-03-06T08:16:34.935Z,21.70
2023-03-06T08:17:35.902Z,21.79
2023-03-06T08:18:35.919Z,21.77
2023-03-06T08:19:35.924Z,21.76
2023-03-06T08:20:35.950Z,21.87
2023-03-06T08:21:35.997Z,21.80
2023-03-06T08:22:36.057Z,21.89
2023-03-06T08:24:36.174Z,21.84
2023-03-06T08:25:36.242Z,21.94
2023-03-06T08:26:36.299Z,21.93
2023-03-06T08:27:35.390Z,21.94
2023-03-06T08:28:36.419Z,21.97
2023-03-06T08:29:36.469Z,21.84
2023-03-06T08:30:35.518Z,21.31
2023-03-06T08:31:36.636Z,21.08
2023-03-06T08:32:36.724Z,21.04
2023-03-06T08:33:36.640Z,21.05
2023-03-06T08:34:36.717Z,21.08
2023-03-06T08:35:36.775Z,21.21
2023-03-06T08:36:36.791Z,21.24
2023-03-06T08:37:36.894Z,21.28
2023-03-06T08:38:35.872Z,21.37
2023-03-06T08:39:36.906Z,21.45
2023-03-06T08:40:35.911Z,21.56
2023-03-06T08:41:36.914Z,21.62
2023-03-06T08:42:36.931Z,21.62
2023-03-06T08:43:36.972Z,21.73
2023-03-06T08:44:36.936Z,21.73
2023-03-06T08:45:37.061Z,21.77
2023-03-06T08:46:36.926Z,21.79
2023-03-06T08:47:36.918Z,21.70
2023-03-06T08:48:36.036Z,21.79
2023-03-06T08:49:36.919Z,21.77
2023-03-06T08:50:36.938Z,21.79
2023-03-06T08:51:36.901Z,21.86
2023-03-06T08:52:35.906Z,21.80
2023-03-06T08:53:43.270Z,21.80
2023-03-06T08:54:36.907Z,21.83
2023-03-06T08:55:35.902Z,21.84
2023-03-06T08:56:36.895Z,21.84
2023-03-06T08:57:36.891Z,21.82
2023-03-06T08:58:35.875Z,21.83
2023-03-06T08:59:35.900Z,21.83
2023-03-06T09:00:36.881Z,21.77
2023-03-06T09:01:36.940Z,21.77
2023-03-06T09:02:36.895Z,21.77
2023-03-06T09:03:36.873Z,21.74
2023-03-06T09:04:36.836Z,21.72
2023-03-06T09:05:36.828Z,21.72
2023-03-06T09:06:36.828Z,21.70
2023-03-06T09:07:36.833Z,21.69
2023-03-06T09:10:36.881Z,21.63
2023-03-06T09:11:36.781Z,21.65
2023-03-06T09:12:47.518Z,21.66
2023-03-06T09:13:36.787Z,21.62
2023-03-06T09:14:35.754Z,21.65
2023-03-06T09:15:36.759Z,21.63
2023-03-06T09:16:35.807Z,21.62
2023-03-06T09:17:36.761Z,21.62
2023-03-06T09:18:36.770Z,21.62
2023-03-06T09:19:36.748Z,21.60
2023-03-06T09:31:36.652Z,21.52
2023-03-06T09:32:36.644Z,21.50
2023-03-06T09:33:36.623Z,21.53
2023-03-06T09:34:36.604Z,21.53
2023-03-06T09:35:36.658Z,21.57
2023-03-06T09:36:53.335Z,21.53
2023-03-06T09:37:36.585Z,21.49
2023-03-06T09:38:36.574Z,21.50
2023-03-06T09:39:36.562Z,21.50
2023-03-06T09:40:36.556Z,21.50
2023-03-06T09:41:36.593Z,21.55
2023-03-06T09:42:37.073Z,21.45
2023-03-06T09:43:36.547Z,21.45
2023-03-06T09:44:36.524Z,21.34
2023-03-06T09:45:36.521Z,21.37
2023-03-06T09:46:36.528Z,21.46
2023-03-06T09:47:36.528Z,21.46
2023-03-06T09:48:36.498Z,21.42
2023-03-06T09:49:36.499Z,21.45
2023-03-06T09:50:36.514Z,21.49
2023-03-06T09:51:36.467Z,21.49
2023-03-06T09:52:36.473Z,21.55
2023-03-06T09:53:36.464Z,21.56
2023-03-06T09:54:36.462Z,21.57
2023-03-06T09:55:36.467Z,21.66
2023-03-06T09:56:36.440Z,21.60
2023-03-06T09:57:36.460Z,21.65
2023-03-06T09:58:36.561Z,21.69
2023-03-06T09:59:36.416Z,21.74
2023-03-06T10:00:35.408Z,21.73
2023-03-06T10:01:35.396Z,21.89
2023-03-06T10:02:35.513Z,21.89
2023-03-06T10:03:36.413Z,21.93
2023-03-06T10:04:36.513Z,21.99
2023-03-06T10:05:36.365Z,22.10
2023-03-06T10:06:36.356Z,22.12
2023-03-06T10:07:36.340Z,22.19
2023-03-06T10:08:36.354Z,22.18
2023-03-06T10:09:35.369Z,22.12
2023-03-06T10:10:35.401Z,22.14
2023-03-06T10:11:36.481Z,22.25
2023-03-06T10:12:35.483Z,22.28
2023-03-06T10:13:36.536Z,22.35
2023-03-06T10:14:36.617Z,22.31
2023-03-06T10:15:36.651Z,22.29
2023-03-06T10:16:36.640Z,22.32
2023-03-06T10:17:35.682Z,22.41
2023-03-06T10:18:36.725Z,22.44
2023-03-06T10:19:36.789Z,22.36
2023-03-06T10:20:36.766Z,22.38
2023-03-06T10:21:36.814Z,22.48
2023-03-06T10:22:35.829Z,22.46
2023-03-06T10:23:36.873Z,22.45
2023-03-06T10:24:36.881Z,22.51
2023-03-06T10:25:36.896Z,22.58
2023-03-06T10:26:37.028Z,22.56
2023-03-06T10:27:36.950Z,22.64
2023-03-06T10:28:35.985Z,22.62
2023-03-06T10:29:38.491Z,22.64
2023-03-06T10:30:36.017Z,22.69
2023-03-06T10:31:37.048Z,22.73
2023-03-06T10:32:48.373Z,22.73
2023-03-06T10:33:37.058Z,22.72
2023-03-06T10:34:37.035Z,22.66
2023-03-06T10:35:37.149Z,22.77
2023-03-06T10:36:37.023Z,22.79
2023-03-06T10:37:36.008Z,22.76
2023-03-06T10:38:37.017Z,22.74
2023-03-06T10:39:36.014Z,22.79
2023-03-06T10:40:36.991Z,22.79
2023-03-06T10:41:36.981Z,22.83
2023-03-06T10:42:36.974Z,22.80
2023-03-06T10:43:36.975Z,22.90
2023-03-06T10:44:36.980Z,22.86
2023-03-06T10:45:48.641Z,22.82
2023-03-06T10:46:37.065Z,22.94
2023-03-06T10:47:36.936Z,22.79
2023-03-06T10:48:35.941Z,22.39
2023-03-06T10:49:37.065Z,21.87
2023-03-06T10:50:36.920Z,21.67
2023-03-06T10:52:35.922Z,21.67
2023-03-06T10:53:35.927Z,21.60
2023-03-06T10:54:36.089Z,21.69
2023-03-06T10:55:36.890Z,21.74
2023-03-06T10:56:36.889Z,21.82
2023-03-06T10:57:36.875Z,21.93
2023-03-06T10:59:36.873Z,22.10
2023-03-06T11:00:36.846Z,22.18
2023-03-06T11:01:36.891Z,22.31
2023-03-06T11:02:36.835Z,22.34
2023-03-06T11:03:36.904Z,22.44
2023-03-06T11:04:35.908Z,22.53
2023-03-06T11:05:36.922Z,22.58
2023-03-06T11:06:35.943Z,22.62
2023-03-06T11:07:37.011Z,22.64
2023-03-06T11:08:36.976Z,22.72
2023-03-06T11:09:37.022Z,22.74
2023-03-06T11:11:38.058Z,22.77
2023-03-06T11:12:37.074Z,22.79
2023-03-06T11:13:37.069Z,22.74
2023-03-06T11:14:37.112Z,22.82
2023-03-06T11:15:37.098Z,22.85
2023-03-06T11:16:37.119Z,22.86
2023-03-06T11:17:37.141Z,22.90
2023-03-06T11:18:37.136Z,22.83
2023-03-06T11:19:37.165Z,22.87
2023-03-06T11:20:50.420Z,22.90
2023-03-06T11:21:37.162Z,22.91
2023-03-06T11:22:37.157Z,22.89
2023-03-06T11:23:36.218Z,22.86
2023-03-06T11:24:37.146Z,22.94
2023-03-06T11:25:37.156Z,22.97
2023-03-06T11:26:37.144Z,22.98
2023-03-06T11:27:37.126Z,22.97
2023-03-06T11:28:37.120Z,22.98
2023-03-06T11:29:38.856Z,22.97
2023-03-06T11:30:37.099Z,22.98
2023-03-06T11:31:37.128Z,22.90
2023-03-06T11:32:36.145Z,22.90
2023-03-06T11:33:37.082Z,22.91
2023-03-06T11:34:37.094Z,22.94
2023-03-06T11:35:37.092Z,23.01
2023-03-06T11:36:37.056Z,22.98
2023-03-06T11:37:37.047Z,22.96
2023-03-06T11:38:37.057Z,23.01
2023-03-06T11:39:37.126Z,23.01
2023-03-06T11:40:36.025Z,23.04
2023-03-06T11:41:37.049Z,22.97
2023-03-06T11:42:37.008Z,22.97
2023-03-06T11:43:37.005Z,22.93
2023-03-06T11:44:37.002Z,22.91
2023-03-06T11:45:36.996Z,22.82
2023-03-06T11:46:37.020Z,22.77
2023-03-06T11:47:36.993Z,22.76
2023-03-06T11:48:37.001Z,22.72
2023-03-06T11:49:36.959Z,22.64
2023-03-06T11:50:36.950Z,22.62
2023-03-06T11:51:36.937Z,22.56
2023-03-06T11:52:36.948Z,22.56
2023-03-06T11:53:35.927Z,22.51
2023-03-06T11:54:36.933Z,22.48
2023-03-06T11:55:36.954Z,22.44
2023-03-06T11:56:35.899Z,22.42
2023-03-06T11:57:36.907Z,22.36
2023-03-06T11:58:36.892Z,22.34
2023-03-06T11:59:36.894Z,22.32
2023-03-06T12:00:36.885Z,22.27
2023-03-06T12:01:36.891Z,22.25
2023-03-06T12:02:36.857Z,22.25
2023-03-06T12:03:36.870Z,22.21
2023-03-06T12:04:36.852Z,22.18
2023-03-06T12:05:36.903Z,22.15
2023-03-06T12:06:36.829Z,22.14
2023-03-06T12:07:35.837Z,22.15
2023-03-06T12:08:36.840Z,22.14
2023-03-06T12:09:35.825Z,22.10
2023-03-06T12:10:36.815Z,22.10
2023-03-06T12:11:36.820Z,22.10
2023-03-06T12:12:36.787Z,22.08
2023-03-06T12:13:36.778Z,22.07
2023-03-06T12:14:36.767Z,22.04
2023-03-06T12:15:36.792Z,22.01
2023-03-06T12:16:35.829Z,22.03
2023-03-06T12:17:36.765Z,22.01
2023-03-06T12:18:36.759Z,21.99
2023-03-06T12:19:36.738Z,21.99
2023-03-06T12:20:36.723Z,21.97
2023-03-06T12:21:36.715Z,21.97
2023-03-06T12:22:36.725Z,21.94
2023-03-06T12:23:36.713Z,21.94
2023-03-06T12:24:36.702Z,21.91
2023-03-06T12:25:36.698Z,21.90
2023-03-06T12:26:36.735Z,21.89
2023-03-06T12:27:36.719Z,21.91
2023-03-06T12:28:36.664Z,21.90
2023-03-06T12:29:36.660Z,21.89
2023-03-06T12:30:35.649Z,21.87
2023-03-06T12:31:35.675Z,21.86
2023-03-06T12:32:36.741Z,21.90
2023-03-06T12:33:36.630Z,21.87
2023-03-06T12:34:36.622Z,21.86
2023-03-06T12:35:35.690Z,21.84
2023-03-06T12:36:36.642Z,21.83
2023-03-06T12:37:36.663Z,21.83
2023-03-06T12:38:36.669Z,21.83
2023-03-06T12:39:36.145Z,21.80
2023-03-06T12:40:36.706Z,21.80
2023-03-06T12:41:36.735Z,21.84
2023-03-06T12:42:36.754Z,21.84
2023-03-06T12:43:38.930Z,21.79
2023-03-06T12:44:36.801Z,21.80
2023-03-06T12:45:37.029Z,21.82
2023-03-06T12:46:35.757Z,21.80
2023-03-06T12:47:36.736Z,21.82
2023-03-06T12:48:36.725Z,21.82
2023-03-06T12:49:36.727Z,21.77
2023-03-06T12:50:36.734Z,21.77
2023-03-06T12:51:36.720Z,21.79
2023-03-06T13:02:36.666Z,21.50
2023-03-06T13:03:35.614Z,21.53
2023-03-06T13:06:41.983Z,21.45
2023-03-06T13:09:36.598Z,21.49
2023-03-06T14:27:37.681Z,22.35
2023-03-06T14:28:37.730Z,22.34
2023-03-06T14:29:37.779Z,22.44
2023-03-06T14:31:36.951Z,22.44
2023-03-06T14:32:36.956Z,22.36
2023-03-06T14:33:37.999Z,22.41
2023-03-06T14:34:38.053Z,22.52
2023-03-06T14:35:38.185Z,22.45
2023-03-06T14:36:38.122Z,22.48
2023-03-06T14:37:38.181Z,22.52
2023-03-06T14:38:38.212Z,22.51
2023-03-06T14:39:38.275Z,22.51
2023-03-06T14:40:38.297Z,22.52
2023-03-06T14:41:38.325Z,22.58
2023-03-06T14:42:38.374Z,22.60
2023-03-06T14:43:38.407Z,22.62
2023-03-06T14:44:38.454Z,22.63
2023-03-06T14:46:37.618Z,22.66
2023-03-06T14:47:38.558Z,22.64
2023-03-06T14:48:38.599Z,22.66
2023-03-06T14:49:38.614Z,22.69
2023-03-06T14:50:40.325Z,22.60
2023-03-06T14:51:38.658Z,22.69
2023-03-06T14:52:38.630Z,22.69
2023-03-06T14:53:37.632Z,22.70
2023-03-06T14:54:38.622Z,22.59
2023-03-06T14:55:37.631Z,22.66
2023-03-06T14:56:38.598Z,22.70
2023-03-06T14:57:38.585Z,22.66
2023-03-06T14:58:38.595Z,22.64
2023-03-06T14:59:38.576Z,22.63
2023-03-06T15:00:38.609Z,22.63
2023-03-06T15:01:38.648Z,22.62
2023-03-06T15:02:38.613Z,22.60
2023-03-06T15:03:37.555Z,22.58
2023-03-06T15:04:38.545Z,22.55
2023-03-06T15:05:38.548Z,22.52
2023-03-06T15:06:38.622Z,22.52
2023-03-06T15:07:37.549Z,22.51
2023-03-06T15:08:38.524Z,22.48
2023-03-06T15:09:37.506Z,22.51
2023-03-06T15:10:38.498Z,22.48
2023-03-06T15:11:38.485Z,22.51
2023-03-06T15:12:38.577Z,22.46
2023-03-06T15:13:38.474Z,22.49
2023-03-06T15:14:37.466Z,22.42
2023-03-06T15:15:37.470Z,22.44
2023-03-06T15:16:38.543Z,22.39
2023-03-06T15:17:38.553Z,22.35
2023-03-06T15:18:39.018Z,22.39
2023-03-06T15:19:38.659Z,22.51
2023-03-06T15:20:38.720Z,22.46
2023-03-06T15:21:38.790Z,22.48
2023-03-06T15:22:38.865Z,22.48
2023-03-06T15:23:37.957Z,22.51
2023-03-06T15:24:38.958Z,22.53
2023-03-06T15:25:38.014Z,22.51
2023-03-06T15:28:39.188Z,22.49
2023-03-06T15:29:39.253Z,22.51
2023-03-06T15:30:39.310Z,22.55
2023-03-06T15:31:39.400Z,22.55
2023-03-06T15:32:39.439Z,22.56
2023-03-06T15:33:39.452Z,22.60
2023-03-06T15:34:39.532Z,22.52
2023-03-06T15:35:39.620Z,22.59
2023-03-06T15:36:39.609Z,22.56
2023-03-06T15:37:38.656Z,22.60
2023-03-06T15:38:39.695Z,22.56
2023-03-06T15:39:39.778Z,22.59
2023-03-06T15:43:39.964Z,22.62
2023-03-06T15:44:38.995Z,22.58
2023-03-06T15:45:40.095Z,22.62
2023-03-06T15:46:40.098Z,22.58
2023-03-06T15:47:40.162Z,22.56
2023-03-06T15:48:39.208Z,22.53
2023-03-06T15:49:40.268Z,22.62
2023-03-06T15:50:40.440Z,22.58
2023-03-06T15:51:40.360Z,22.56
2023-03-06T15:52:40.392Z,22.62
2023-03-06T15:53:40.438Z,22.64
2023-03-06T15:54:40.504Z,22.67
2023-03-06T15:55:40.574Z,22.67
2023-03-06T15:56:39.588Z,22.62
2023-03-06T15:57:39.652Z,22.69
2023-03-06T15:58:40.737Z,22.64
2023-03-06T15:59:40.750Z,22.60
2023-03-06T16:00:40.810Z,22.62
2023-03-06T16:01:40.840Z,22.67
2023-03-06T16:02:40.881Z,22.63
2023-03-06T16:03:40.931Z,22.63
2023-03-06T16:04:40.988Z,22.64
2023-03-06T16:05:41.030Z,22.73
2023-03-06T16:06:41.083Z,22.72
2023-03-06T16:07:41.127Z,22.67
2023-03-06T16:08:40.169Z,22.69
2023-03-06T16:09:40.233Z,22.70
2023-03-06T16:10:41.297Z,22.64
2023-03-06T16:11:43.923Z,22.60
2023-03-06T16:12:40.340Z,22.59
2023-03-06T16:13:41.336Z,22.53
2023-03-06T16:14:40.338Z,22.52
2023-03-06T16:15:40.329Z,22.51
2023-03-06T16:16:41.453Z,22.46
2023-03-06T16:17:41.298Z,22.44
2023-03-06T16:18:41.283Z,22.36
2023-03-06T16:19:41.283Z,22.32
2023-03-06T16:20:41.284Z,22.28
2023-03-06T16:21:41.278Z,22.28
2023-03-06T16:22:41.256Z,22.29
2023-03-06T16:23:41.239Z,22.27
2023-03-06T16:24:41.245Z,22.27
2023-03-06T16:25:41.222Z,22.21
2023-03-06T16:26:41.223Z,22.21
2023-03-06T16:27:41.239Z,22.19
2023-03-06T16:28:41.222Z,22.14
2023-03-06T16:29:40.204Z,22.14
2023-03-06T16:31:59.556Z,22.05
2023-03-06T16:33:00.332Z,22.04
2023-03-06T16:34:00.259Z,22.01
2023-03-06T16:35:00.257Z,22.00
2023-03-06T16:35:59.268Z,22.01
2023-03-06T16:37:00.222Z,22.00
2023-03-06T16:38:00.256Z,21.96
2023-03-06T16:39:00.227Z,21.93
2023-03-06T16:40:00.216Z,21.89
2023-03-06T16:41:00.247Z,21.93
2023-03-06T16:41:59.216Z,21.89
2023-03-06T16:42:59.251Z,21.87
2023-03-06T16:44:00.181Z,21.84
2023-03-06T16:45:00.184Z,21.80
2023-03-06T16:46:00.195Z,21.79
2023-03-06T16:47:00.185Z,21.80
2023-03-06T16:48:00.456Z,21.77
2023-03-06T16:49:00.179Z,21.77
2023-03-06T16:50:00.240Z,21.79
2023-03-06T16:51:00.137Z,21.74
2023-03-06T16:52:00.122Z,21.72
2023-03-06T16:53:00.153Z,21.74
2023-03-06T16:54:00.117Z,21.69
2023-03-06T16:54:59.112Z,21.70
2023-03-06T16:56:00.176Z,21.70
2023-03-06T16:57:00.114Z,21.62
2023-03-06T16:58:00.129Z,21.67
2023-03-06T16:59:00.118Z,21.67
2023-03-06T16:59:59.063Z,21.65
2023-03-06T17:01:00.165Z,21.65
2023-03-06T17:02:00.095Z,21.62
2023-03-06T17:03:00.088Z,21.62
2023-03-06T17:04:00.044Z,21.59
2023-03-06T17:05:00.028Z,21.55
2023-03-06T17:06:00.040Z,21.56
2023-03-06T17:07:00.030Z,21.53
2023-03-06T17:08:00.027Z,21.53
2023-03-06T17:08:59.995Z,21.49
2023-03-06T17:09:58.998Z,21.49
2023-03-06T17:10:59.992Z,21.46
2023-03-06T17:11:58.982Z,21.48
2023-03-06T17:12:59.963Z,21.46
2023-03-06T17:14:00.025Z,21.42
2023-03-06T17:15:00.049Z,21.45
2023-03-06T17:16:00.188Z,21.42
2023-03-06T17:17:00.147Z,21.41
2023-03-06T17:18:00.229Z,21.38
2023-03-06T17:19:00.219Z,21.37
2023-03-06T17:20:00.270Z,21.38
2023-03-06T17:21:00.372Z,21.37
2023-03-06T17:22:00.406Z,21.35
2023-03-06T17:23:00.428Z,21.32
2023-03-06T17:24:00.474Z,21.31
2023-03-06T17:25:00.531Z,21.31
2023-03-06T17:26:00.616Z,21.31
2023-03-06T17:26:59.654Z,21.29
2023-03-06T17:28:00.707Z,21.28
2023-03-06T17:28:59.779Z,21.24
2023-03-06T17:30:00.826Z,21.25
2023-03-06T17:31:00.957Z,21.22
2023-03-06T17:32:00.945Z,21.24
2023-03-06T17:33:01.027Z,21.24
2023-03-06T17:34:01.044Z,21.20
2023-03-06T17:35:01.125Z,21.21
2023-03-06T17:36:00.175Z,21.22
2023-03-06T17:37:01.303Z,21.18
2023-03-06T17:38:00.337Z,21.18
2023-03-06T17:39:02.105Z,21.20
2023-03-06T17:40:00.436Z,21.17
2023-03-06T17:41:01.506Z,21.17
2023-03-06T17:42:01.554Z,21.15
2023-03-06T17:43:01.606Z,21.17
2023-03-06T17:44:00.695Z,21.14
2023-03-06T17:45:01.730Z,21.11
2023-03-06T17:46:01.899Z,21.11
2023-03-06T17:47:01.853Z,21.11
2023-03-06T17:48:01.918Z,21.14
2023-03-06T17:49:01.943Z,21.11
2023-03-06T17:50:02.042Z,21.12
2023-03-06T17:51:02.144Z,21.07
2023-03-06T17:52:01.159Z,21.10
2023-03-06T17:53:02.159Z,21.10
2023-03-06T17:54:02.222Z,21.07
2023-03-06T17:55:02.273Z,21.04
2023-03-06T17:56:02.402Z,21.04
2023-03-06T17:57:02.408Z,21.05
2023-03-06T17:58:02.393Z,21.04
2023-03-06T17:59:02.433Z,20.98
2023-03-06T18:00:02.486Z,21.01
2023-03-06T18:01:02.553Z,21.00
2023-03-06T18:02:02.753Z,21.00
2023-03-06T18:03:02.672Z,20.98
2023-03-06T18:04:02.690Z,20.93
2023-03-06T18:05:01.825Z,20.97
2023-03-06T18:06:02.783Z,20.93
2023-03-06T18:07:02.806Z,20.93
2023-03-06T18:08:02.856Z,20.91
2023-03-06T18:09:02.832Z,20.90
2023-03-06T18:10:02.847Z,20.93
2023-03-06T18:11:02.870Z,20.91
2023-03-06T18:12:02.893Z,20.90
2023-03-06T18:13:02.931Z,20.91
2023-03-06T18:14:05.380Z,20.89
2023-03-06T18:15:01.939Z,20.87
2023-03-06T18:16:02.969Z,20.87
2023-03-06T18:17:02.903Z,20.86
2023-03-06T18:18:02.887Z,20.83
2023-03-06T18:19:01.912Z,20.83
2023-03-06T18:20:02.947Z,20.83
2023-03-06T18:21:02.863Z,20.82
2023-03-06T18:22:02.868Z,20.80
2023-03-06T18:23:02.869Z,20.80
2023-03-06T18:24:02.835Z,20.79
2023-03-06T18:25:01.877Z,20.80
2023-03-06T18:26:02.867Z,20.79
2023-03-06T18:27:02.825Z,20.79
2023-03-06T18:28:02.805Z,20.76
2023-03-06T18:29:02.811Z,20.77
2023-03-06T18:30:02.796Z,20.74
2023-03-06T18:31:02.786Z,20.74
2023-03-06T18:32:02.948Z,20.74
2023-03-06T18:33:02.759Z,20.72
2023-03-06T18:34:02.752Z,20.73
2023-03-06T18:35:02.777Z,20.72
2023-03-06T18:36:02.747Z,20.72
2023-03-06T18:37:02.771Z,20.72
2023-03-06T18:38:02.732Z,20.69
2023-03-06T18:39:02.721Z,20.69
2023-03-06T18:40:01.750Z,20.69
2023-03-06T18:41:02.712Z,20.67
2023-03-06T18:42:02.685Z,20.69
2023-03-06T18:43:02.710Z,20.69
2023-03-06T18:44:02.864Z,20.63
2023-03-06T18:45:02.722Z,20.66
2023-03-06T18:46:02.727Z,20.65
2023-03-06T18:47:02.721Z,20.65
2023-03-06T18:48:02.645Z,20.66
2023-03-06T18:49:02.653Z,20.65
2023-03-06T18:50:02.760Z,20.63
2023-03-06T18:51:01.668Z,20.62
2023-03-06T18:52:02.635Z,20.62
2023-03-06T18:53:02.612Z,20.60
2023-03-06T18:54:02.615Z,20.60
2023-03-06T18:55:02.681Z,20.62
2023-03-06T18:56:02.618Z,20.60
2023-03-06T18:57:01.602Z,20.62
2023-03-06T18:58:02.559Z,20.62
2023-03-06T18:59:01.616Z,20.57
2023-03-06T19:00:01.594Z,20.57
2023-03-06T19:01:02.570Z,20.57
2023-03-06T19:02:02.566Z,20.56
2023-03-06T19:03:01.569Z,20.57
2023-03-06T19:04:02.584Z,20.56
2023-03-06T19:05:01.519Z,20.52
2023-03-06T19:06:02.519Z,20.55
2023-03-06T19:07:02.535Z,20.55
2023-03-06T19:08:02.554Z,20.53
2023-03-06T19:09:02.488Z,20.53
2023-03-06T19:10:02.479Z,20.53
2023-03-06T19:11:02.483Z,20.53
2023-03-06T19:12:02.481Z,20.53
2023-03-06T19:13:02.486Z,20.50
2023-03-06T19:14:02.479Z,20.53
2023-03-06T19:15:02.458Z,20.49
2023-03-06T19:16:02.445Z,20.50
2023-03-06T19:17:01.456Z,20.52
2023-03-06T19:18:02.422Z,20.50
2023-03-06T19:19:02.459Z,20.49
2023-03-06T19:20:02.480Z,20.48
2023-03-06T19:21:02.392Z,20.50
2023-03-06T19:22:02.460Z,20.49
2023-03-06T19:23:02.417Z,20.49
2023-03-06T19:24:02.383Z,20.48
2023-03-06T19:25:03.913Z,20.49
2023-03-06T19:26:02.524Z,20.48
2023-03-06T19:27:02.512Z,20.48
2023-03-06T19:28:02.536Z,20.50
2023-03-06T19:29:02.504Z,20.48
2023-03-06T19:30:02.504Z,20.46
2023-03-06T19:31:01.506Z,20.43
2023-03-06T19:32:02.761Z,20.42
2023-03-06T19:33:02.526Z,20.43
2023-03-06T19:34:02.505Z,20.45
2023-03-06T19:35:01.510Z,20.45
2023-03-06T19:36:02.541Z,20.43
2023-03-06T19:37:01.498Z,20.42
2023-03-06T19:38:02.507Z,20.42
2023-03-06T19:39:02.533Z,20.43
2023-03-06T19:40:02.496Z,20.42
2023-03-06T19:41:02.515Z,20.42
2023-03-06T19:42:02.508Z,20.42
2023-03-06T19:43:02.510Z,20.38
2023-03-06T19:44:02.545Z,20.39
2023-03-06T19:45:02.518Z,20.39
2023-03-06T19:46:02.555Z,20.39
2023-03-06T19:47:02.542Z,20.40
2023-03-06T19:48:02.534Z,20.36
2023-03-06T19:49:01.558Z,20.38
2023-03-06T19:50:02.534Z,20.39
2023-03-06T19:51:01.522Z,20.38
2023-03-06T19:52:02.542Z,20.38
2023-03-06T19:53:02.552Z,20.33
2023-03-06T19:54:01.555Z,20.33
2023-03-06T19:55:02.600Z,20.36
2023-03-06T19:56:01.578Z,20.35
2023-03-06T19:57:06.486Z,20.35
2023-03-06T19:58:02.574Z,20.36
2023-03-06T19:59:02.576Z,20.35
2023-03-06T20:00:02.551Z,20.35
2023-03-06T20:01:02.620Z,20.35
2023-03-06T20:02:01.559Z,20.35
2023-03-06T20:03:02.597Z,20.35
2023-03-06T20:04:02.531Z,20.32
2023-03-06T20:05:01.534Z,20.33
2023-03-06T20:06:02.526Z,20.32
2023-03-06T20:07:02.512Z,20.33
2023-03-06T20:08:02.519Z,20.31
2023-03-06T20:09:02.505Z,20.29
2023-03-06T20:10:02.508Z,20.29
2023-03-06T20:11:02.501Z,20.31
2023-03-06T20:12:02.484Z,20.31
2023-03-06T20:13:03.087Z,20.32
2023-03-06T20:14:02.474Z,20.29
2023-03-06T20:15:01.452Z,20.29
2023-03-06T20:16:02.513Z,20.32
2023-03-06T20:17:02.434Z,20.28
2023-03-06T20:18:02.439Z,20.28
2023-03-06T20:19:02.099Z,20.28
2023-03-06T20:20:01.411Z,20.28
2023-03-06T20:21:02.407Z,20.27
2023-03-06T20:22:02.413Z,20.27
2023-03-06T20:23:02.399Z,20.27
2023-03-06T20:24:02.398Z,20.24
2023-03-06T20:25:02.403Z,20.27
2023-03-06T20:26:02.412Z,20.27
2023-03-06T20:27:02.466Z,20.25
2023-03-06T20:28:03.438Z,20.25
2023-03-06T20:29:01.450Z,20.29
2023-03-06T20:30:02.468Z,20.27
2023-03-06T20:31:02.518Z,20.25
2023-03-06T20:32:02.572Z,20.24
2023-03-06T20:33:01.488Z,20.24
2023-03-06T20:34:02.518Z,20.21
2023-03-06T20:35:02.521Z,20.24
2023-03-06T20:36:02.579Z,20.24
2023-03-06T20:37:02.556Z,20.24
2023-03-06T20:38:01.564Z,20.24
2023-03-06T20:39:02.597Z,20.22
2023-03-06T20:40:02.664Z,20.24
2023-03-06T20:41:02.615Z,20.22
2023-03-06T20:42:01.637Z,20.21
2023-03-06T20:43:02.709Z,20.21
2023-03-06T20:44:01.676Z,20.22
2023-03-06T20:45:02.699Z,20.22
2023-03-06T20:46:02.786Z,20.20
2023-03-06T20:47:01.733Z,20.20
2023-03-06T20:48:01.730Z,20.18
2023-03-06T20:49:02.766Z,20.20
2023-03-06T20:50:02.768Z,20.20
2023-03-06T20:51:02.791Z,20.20
2023-03-06T20:52:02.820Z,20.17
2023-03-06T20:53:02.833Z,20.20